Flight Track Log - Related Links

Times and Time Zones

All times are in EDT time to prevent confusion due to time zone crossing. See the LBQ652 flight status page for this flight to view local times or setup timezone preferences in your user account.

Time Position Orientation Groundspeed Altitude Reporting Facility
EDT Latitude Longitude Course Direction KTS MPH feet Rate Location/Type
Wed 05:01:45 AM 38.8117 -94.8356 102° East 226 260 3,400  Level Kansas City Center
Wed 05:02:46 AM 38.8169 -94.7472 86° East 267 307 5,000 2,016 Climbing Kansas City Center
Wed 05:03:47 AM 38.8139 -94.6344 92° East 282 325 7,500 2,132 Climbing Kansas City Center
Wed 05:04:47 AM 38.8125 -94.5367 91° East 287 330 9,300 1,636 Climbing Kansas City Center
Wed 05:05:48 AM 38.8097 -94.4383 92° East 289 333 10,800 1,525 Climbing Kansas City Center
Wed 05:06:49 AM 38.8067 -94.3183 92° East 302 348 12,400 1,488 Climbing Kansas City Center
Wed 05:07:49 AM 38.8044 -94.2139 92° East 305 351 13,800 1,289 Climbing Kansas City Center
Wed 05:08:50 AM 38.8014 -94.1056 92° East 316 364 15,000 1,328 Climbing Kansas City Center
Wed 05:09:51 AM 38.7992 -93.9772 91° East 323 372 16,500 1,388 Climbing Kansas City Center
Wed 05:10:51 AM 38.7956 -93.8681 92° East 320 368 17,800 1,388 Climbing Kansas City Center
Wed 05:11:52 AM 38.7917 -93.7456 92° East 323 372 19,300 1,339 Climbing Kansas City Center
Wed 05:12:52 AM 38.7875 -93.6264 93° East 332 382 20,500 1,240 Climbing Kansas City Center
Wed 05:13:53 AM 38.7836 -93.5100 92° East 329 379 21,800 1,230 Climbing Kansas City Center
Wed 05:14:54 AM 38.7814 -93.3853 91° East 336 387 23,000 595 Climbing Kansas City Center
Wed 05:15:54 AM 38.7769 -93.2542 92° East 358 412 23,000  Level Kansas City Center
Wed 05:16:55 AM 38.7733 -93.1217 92° East 367 422 23,000  Level Kansas City Center
Wed 05:17:55 AM 38.7689 -92.9908 92° East 368 423 23,000  Level Kansas City Center
Wed 05:18:56 AM 38.7639 -92.8586 93° East 369 425 23,000  Level Kansas City Center
Wed 05:19:57 AM 38.7594 -92.7289 92° East 366 421 23,000  Level Kansas City Center
Wed 05:20:57 AM 38.7536 -92.5986 93° East 364 419 23,000  Level Kansas City Center
Wed 05:21:58 AM 38.7492 -92.4683 92° East 364 419 23,000  Level Kansas City Center
Wed 05:22:58 AM 38.7433 -92.3358 93° East 367 422 23,000  Level Kansas City Center
Wed 05:23:59 AM 38.7381 -92.2058 93° East 366 421 23,000  Level Kansas City Center
Wed 05:24:59 AM 38.7311 -92.0758 94° East 363 418 23,000  Level Kansas City Center
Wed 05:26:00 AM 38.7256 -91.9456 93° East 364 419 23,000  Level Kansas City Center
Wed 05:27:01 AM 38.7203 -91.8147 93° East 365 420 23,000 -545 Level Kansas City Center
Wed 05:28:01 AM 38.7142 -91.7033 94° East 365 420 21,900 -2,281 Descending Kansas City Center
Wed 05:29:02 AM 38.7075 -91.5439 93° East 372 428 18,400 -3,124 Descending Kansas City Center
Wed 05:30:02 AM 38.7011 -91.4178 94° East 362 417 15,600 -2,628 Descending Kansas City Center
Wed 05:31:03 AM 38.6953 -91.2994 94° East 341 392 13,100 -2,479 Descending Kansas City Center
Wed 05:32:03 AM 38.6853 -91.1856 96° East 326 375 10,600 -2,430 Descending Kansas City Center
Wed 05:33:04 AM 38.6794 -91.0786 94° East 309 356 8,200 -2,331 Descending Kansas City Center
Wed 05:34:04 AM 38.6706 -90.9728 96° East 303 349 5,900 -2,231 Descending Kansas City Center
Wed 05:35:05 AM 38.6606 -90.8753 97° East 292 336 3,700 -1,721 Descending Kansas City Center
Wed 05:36:06 AM 38.6497 -90.7853 99° East 275 316 2,400 -1,091 Descending Kansas City Center
Wed 05:37:06 AM 38.6481 -90.7142 92° East 230 265 1,500 -893 Descending Kansas City Center
Wed 05:38:07 AM 38.6572 -90.6639 77° East 174 200 600 -885 Descending Kansas City Center

Login

Don't have an account? Register now (free) for customized features, flight alerts, and more!